Time,TemperatureF,DewpointF,PressureIn,WindDirection,WindDirectionDegrees,WindSpeedMPH,WindSpeedGustMPH,Humidity,HourlyPrecipIn,Conditions,Clouds,dailyrainin,SolarRadiationWatts/m^2,SoftwareType,DateUTC
2013-09-29 00:00:00,56.0,54.3,30.15,North,355,0.0,0.0,94,0.00,,OVC018,0.00,0.00,VWS V14.00,2013-09-29 04:00:00,
2013-09-29 01:00:00,57.7,55.4,30.15,NNW,348,0.0,0.0,92,0.00,,OVC018,0.00,0.00,VWS V14.00,2013-09-29 05:00:00,
2013-09-29 02:00:00,57.9,55.0,30.14,NNW,348,0.0,0.0,90,0.00,,OVC018,0.00,0.00,VWS V14.00,2013-09-29 06:00:00,
2013-09-29 03:00:00,56.6,54.6,30.13,North,349,0.0,0.0,93,0.00,,OVC018,0.00,0.00,VWS V14.00,2013-09-29 07:00:00,
2013-09-29 04:00:00,56.1,54.4,30.12,North,359,0.0,0.0,94,0.00,,OVC018,0.00,0.00,VWS V14.00,2013-09-29 08:00:00,
2013-09-29 05:00:00,55.7,54.0,30.13,North,359,0.0,0.0,94,0.00,,OVC018,0.00,0.00,VWS V14.00,2013-09-29 09:00:00,
2013-09-29 06:00:00,54.2,52.5,30.15,North,359,0.0,0.0,94,0.00,,OVC018,0.00,0.00,VWS V14.00,2013-09-29 10:00:00,
2013-09-29 07:00:00,54.7,53.3,30.16,North,349,0.0,0.0,95,0.00,,OVC018,0.00,30.00,VWS V14.00,2013-09-29 11:00:00,
2013-09-29 08:00:00,57.3,55.3,30.17,NNE,16,0.0,0.0,93,0.00,,OVC018,0.00,123.00,VWS V14.00,2013-09-29 12:00:00,
2013-09-29 09:00:00,60.8,57.5,30.16,NE,39,0.0,2.0,89,0.00,,OVC018,0.00,214.00,VWS V14.00,2013-09-29 13:00:00,
2013-09-29 10:00:00,66.6,60.6,30.15,NE,54,0.0,0.0,81,0.01,,OVC018,0.01,568.00,VWS V14.00,2013-09-29 14:00:00,
2013-09-29 11:00:00,69.5,60.1,30.14,NNE,20,0.0,3.0,72,0.01,,OVC018,0.01,121.00,VWS V14.00,2013-09-29 15:00:00,
2013-09-29 12:00:00,72.1,57.5,30.11,NW,324,0.0,0.0,60,0.00,,OVC018,0.01,603.00,VWS V14.00,2013-09-29 16:00:00,
2013-09-29 13:00:00,74.3,59.1,30.07,ESE,111,0.0,4.0,59,0.00,,OVC018,0.01,953.00,VWS V14.00,2013-09-29 17:00:00,
2013-09-29 14:00:00,74.5,57.3,30.04,East,100,6.0,7.0,55,0.00,,OVC018,0.01,830.00,VWS V14.00,2013-09-29 18:00:00,
2013-09-29 15:00:00,74.4,57.2,30.02,NE,48,0.0,1.0,55,0.00,,OVC018,0.01,608.00,VWS V14.00,2013-09-29 19:00:00,
2013-09-29 16:00:00,73.4,58.7,30.03,NNW,340,0.0,4.0,60,0.00,,OVC018,0.01,603.00,VWS V14.00,2013-09-29 20:00:00,
2013-09-29 17:00:00,72.4,60.0,30.03,NNE,19,0.0,0.0,65,0.00,,OVC018,0.01,114.00,VWS V14.00,2013-09-29 21:00:00,
2013-09-29 18:00:00,69.2,61.3,30.04,SE,136,0.0,0.0,76,0.00,,OVC018,0.01,25.00,VWS V14.00,2013-09-29 22:00:00,
2013-09-29 19:00:00,63.4,59.5,30.05,SE,136,0.0,0.0,87,0.00,,OVC018,0.01,0.00,VWS V14.00,2013-09-29 23:00:00,
2013-09-29 20:00:00,61.0,58.0,30.06,SE,136,0.0,0.0,90,0.00,,OVC018,0.01,0.00,VWS V14.00,2013-09-30 00:00:00,
2013-09-29 21:00:00,60.3,58.0,30.07,SE,136,0.0,0.0,92,0.00,,OVC018,0.01,0.00,VWS V14.00,2013-09-30 01:00:00,
2013-09-29 22:00:00,59.3,57.6,30.06,SE,136,0.0,0.0,94,0.00,,OVC018,0.01,0.00,VWS V14.00,2013-09-30 02:00:00,
2013-09-29 23:00:00,58.3,56.9,30.04,SE,136,0.0,0.0,95,0.00,,OVC018,0.01,0.00,VWS V14.00,2013-09-30 03:00:00,